sensor_id;sensor_type;location;lat;lon;timestamp;temperature;humidity
50544;DHT22;41176;44.032;20.900;2023-02-28T00:02:13;3.50;99.90
50544;DHT22;41176;44.032;20.900;2023-02-28T00:04:39;3.50;99.90
50544;DHT22;41176;44.032;20.900;2023-02-28T00:07:04;3.50;99.90
50544;DHT22;41176;44.032;20.900;2023-02-28T00:09:30;3.50;99.90
50544;DHT22;41176;44.032;20.900;2023-02-28T00:11:56;3.60;99.90
50544;DHT22;41176;44.032;20.900;2023-02-28T00:14:22;3.60;99.90
50544;DHT22;41176;44.032;20.900;2023-02-28T00:16:47;3.60;99.90
50544;DHT22;41176;44.032;20.900;2023-02-28T00:19:14;3.60;99.90
50544;DHT22;41176;44.032;20.900;2023-02-28T00:21:39;3.50;99.90
50544;DHT22;41176;44.032;20.900;2023-02-28T00:24:06;3.50;99.90
50544;DHT22;41176;44.032;20.900;2023-02-28T00:26:32;3.50;99.90
50544;DHT22;41176;44.032;20.900;2023-02-28T00:28:58;3.60;99.90
50544;DHT22;41176;44.032;20.900;2023-02-28T00:31:24;3.60;99.90
50544;DHT22;41176;44.032;20.900;2023-02-28T00:33:49;3.60;99.90
50544;DHT22;41176;44.032;20.900;2023-02-28T00:36:17;3.60;99.90
50544;DHT22;41176;44.032;20.900;2023-02-28T00:38:42;3.60;99.90
50544;DHT22;41176;44.032;20.900;2023-02-28T00:41:08;3.60;99.90
50544;DHT22;41176;44.032;20.900;2023-02-28T00:43:38;3.60;99.90
50544;DHT22;41176;44.032;20.900;2023-02-28T00:46:05;3.60;99.90
50544;DHT22;41176;44.032;20.900;2023-02-28T00:48:31;3.60;99.90
50544;DHT22;41176;44.032;20.900;2023-02-28T00:50:56;3.60;99.90
50544;DHT22;41176;44.032;20.900;2023-02-28T00:53:22;3.60;99.90
50544;DHT22;41176;44.032;20.900;2023-02-28T00:55:49;3.60;99.90
50544;DHT22;41176;44.032;20.900;2023-02-28T00:58:15;3.60;99.90
50544;DHT22;41176;44.032;20.900;2023-02-28T01:00:40;3.60;99.90
50544;DHT22;41176;44.032;20.900;2023-02-28T01:03:06;3.60;99.90
50544;DHT22;41176;44.032;20.900;2023-02-28T01:05:32;3.60;99.90
50544;DHT22;41176;44.032;20.900;2023-02-28T01:07:57;3.60;99.90
50544;DHT22;41176;44.032;20.900;2023-02-28T01:10:23;3.50;99.90
50544;DHT22;41176;44.032;20.900;2023-02-28T01:12:50;3.50;99.90
50544;DHT22;41176;44.032;20.900;2023-02-28T01:15:15;3.60;99.90
50544;DHT22;41176;44.032;20.900;2023-02-28T01:17:41;3.60;99.90
50544;DHT22;41176;44.032;20.900;2023-02-28T01:20:07;3.60;99.90
50544;DHT22;41176;44.032;20.900;2023-02-28T01:22:34;3.50;99.90
50544;DHT22;41176;44.032;20.900;2023-02-28T01:25:00;3.40;99.90
50544;DHT22;41176;44.032;20.900;2023-02-28T01:27:25;3.40;99.90
50544;DHT22;41176;44.032;20.900;2023-02-28T01:29:52;3.40;99.90
50544;DHT22;41176;44.032;20.900;2023-02-28T01:32:17;3.40;99.90
50544;DHT22;41176;44.032;20.900;2023-02-28T01:34:43;3.40;99.90
50544;DHT22;41176;44.032;20.900;2023-02-28T01:37:09;3.40;99.90
50544;DHT22;41176;44.032;20.900;2023-02-28T01:39:34;3.40;99.90
50544;DHT22;41176;44.032;20.900;2023-02-28T01:42:00;3.40;99.90
50544;DHT22;41176;44.032;20.900;2023-02-28T01:47:20;3.50;99.90
50544;DHT22;41176;44.032;20.900;2023-02-28T01:49:46;3.50;99.90
50544;DHT22;41176;44.032;20.900;2023-02-28T01:52:14;3.50;99.90
50544;DHT22;41176;44.032;20.900;2023-02-28T01:54:52;3.50;99.90
50544;DHT22;41176;44.032;20.900;2023-02-28T01:57:26;3.50;99.90
50544;DHT22;41176;44.032;20.900;2023-02-28T02:00:04;3.50;99.90
50544;DHT22;41176;44.032;20.900;2023-02-28T02:02:31;3.50;99.90
50544;DHT22;41176;44.032;20.900;2023-02-28T02:05:14;3.50;99.90
50544;DHT22;41176;44.032;20.900;2023-02-28T02:07:41;3.50;99.90
50544;DHT22;41176;44.032;20.900;2023-02-28T02:10:20;3.50;99.90
50544;DHT22;41176;44.032;20.900;2023-02-28T02:35:28;3.30;99.90
50544;DHT22;41176;44.032;20.900;2023-02-28T02:40:41;3.40;99.90
50544;DHT22;41176;44.032;20.900;2023-02-28T02:45:59;3.50;99.90
50544;DHT22;41176;44.032;20.900;2023-02-28T02:48:29;3.50;99.90
50544;DHT22;41176;44.032;20.900;2023-02-28T02:50:59;3.50;99.90
50544;DHT22;41176;44.032;20.900;2023-02-28T02:53:32;3.50;99.90
50544;DHT22;41176;44.032;20.900;2023-02-28T02:56:01;3.50;99.90
50544;DHT22;41176;44.032;20.900;2023-02-28T02:58:33;3.50;99.90
50544;DHT22;41176;44.032;20.900;2023-02-28T03:01:02;3.50;99.90
50544;DHT22;41176;44.032;20.900;2023-02-28T03:03:31;3.40;99.90
50544;DHT22;41176;44.032;20.900;2023-02-28T03:06:00;3.40;99.90
50544;DHT22;41176;44.032;20.900;2023-02-28T03:08:27;3.40;99.90
50544;DHT22;41176;44.032;20.900;2023-02-28T03:10:59;3.40;99.90
50544;DHT22;41176;44.032;20.900;2023-02-28T03:21:32;3.40;99.90
50544;DHT22;41176;44.032;20.900;2023-02-28T03:24:10;3.40;99.90
50544;DHT22;41176;44.032;20.900;2023-02-28T03:26:43;3.40;99.90
50544;DHT22;41176;44.032;20.900;2023-02-28T03:29:19;3.40;99.90
50544;DHT22;41176;44.032;20.900;2023-02-28T03:32:02;3.40;99.90
50544;DHT22;41176;44.032;20.900;2023-02-28T03:34:38;3.40;99.90
50544;DHT22;41176;44.032;20.900;2023-02-28T03:37:13;3.40;99.90
50544;DHT22;41176;44.032;20.900;2023-02-28T03:39:57;3.40;99.90
50544;DHT22;41176;44.032;20.900;2023-02-28T03:42:27;3.40;99.90
50544;DHT22;41176;44.032;20.900;2023-02-28T03:45:04;3.40;99.90
50544;DHT22;41176;44.032;20.900;2023-02-28T03:52:38;3.30;99.90
50544;DHT22;41176;44.032;20.900;2023-02-28T03:55:10;3.00;99.90
50544;DHT22;41176;44.032;20.900;2023-02-28T03:58:01;3.00;99.90
50544;DHT22;41176;44.032;20.900;2023-02-28T04:00:34;3.00;99.90
50544;DHT22;41176;44.032;20.900;2023-02-28T04:03:01;3.10;99.90
50544;DHT22;41176;44.032;20.900;2023-02-28T04:05:27;3.10;99.90
50544;DHT22;41176;44.032;20.900;2023-02-28T04:07:54;3.20;99.90
50544;DHT22;41176;44.032;20.900;2023-02-28T04:10:20;3.20;99.90
50544;DHT22;41176;44.032;20.900;2023-02-28T04:12:45;3.20;99.90
50544;DHT22;41176;44.032;20.900;2023-02-28T04:15:11;3.30;99.90
50544;DHT22;41176;44.032;20.900;2023-02-28T04:17:37;3.30;99.90
50544;DHT22;41176;44.032;20.900;2023-02-28T04:20:03;3.30;99.90
50544;DHT22;41176;44.032;20.900;2023-02-28T04:22:35;3.30;99.90
50544;DHT22;41176;44.032;20.900;2023-02-28T04:25:00;3.20;99.90
50544;DHT22;41176;44.032;20.900;2023-02-28T04:27:26;3.20;99.90
50544;DHT22;41176;44.032;20.900;2023-02-28T04:29:52;3.20;99.90
50544;DHT22;41176;44.032;20.900;2023-02-28T04:32:17;3.20;99.90
50544;DHT22;41176;44.032;20.900;2023-02-28T04:34:43;3.30;99.90
50544;DHT22;41176;44.032;20.900;2023-02-28T04:37:08;3.30;99.90
50544;DHT22;41176;44.032;20.900;2023-02-28T04:39:36;3.30;99.90
50544;DHT22;41176;44.032;20.900;2023-02-28T04:42:02;3.30;99.90
50544;DHT22;41176;44.032;20.900;2023-02-28T04:44:28;3.30;99.90
50544;DHT22;41176;44.032;20.900;2023-02-28T04:46:56;3.30;99.90
50544;DHT22;41176;44.032;20.900;2023-02-28T04:49:21;3.40;99.90
50544;DHT22;41176;44.032;20.900;2023-02-28T04:51:47;3.40;99.90
50544;DHT22;41176;44.032;20.900;2023-02-28T04:54:15;3.40;99.90
50544;DHT22;41176;44.032;20.900;2023-02-28T04:56:41;3.40;99.90
50544;DHT22;41176;44.032;20.900;2023-02-28T04:59:07;3.40;99.90
50544;DHT22;41176;44.032;20.900;2023-02-28T05:01:33;3.40;99.90
50544;DHT22;41176;44.032;20.900;2023-02-28T05:04:01;3.40;99.90
50544;DHT22;41176;44.032;20.900;2023-02-28T05:06:29;3.40;99.90
50544;DHT22;41176;44.032;20.900;2023-02-28T05:08:55;3.40;99.90
50544;DHT22;41176;44.032;20.900;2023-02-28T05:13:52;3.40;99.90
50544;DHT22;41176;44.032;20.900;2023-02-28T05:16:19;3.40;99.90
50544;DHT22;41176;44.032;20.900;2023-02-28T05:18:45;3.40;99.90
50544;DHT22;41176;44.032;20.900;2023-02-28T05:21:38;3.40;99.90
50544;DHT22;41176;44.032;20.900;2023-02-28T05:24:09;3.40;99.90
50544;DHT22;41176;44.032;20.900;2023-02-28T05:26:37;3.40;99.90
50544;DHT22;41176;44.032;20.900;2023-02-28T05:29:03;3.30;99.90
50544;DHT22;41176;44.032;20.900;2023-02-28T05:31:29;3.30;99.90
50544;DHT22;41176;44.032;20.900;2023-02-28T05:33:55;3.20;99.90
50544;DHT22;41176;44.032;20.900;2023-02-28T05:36:20;3.30;99.90
50544;DHT22;41176;44.032;20.900;2023-02-28T05:38:50;3.30;99.90
50544;DHT22;41176;44.032;20.900;2023-02-28T05:41:16;3.30;99.90
50544;DHT22;41176;44.032;20.900;2023-02-28T05:43:43;3.40;99.90
50544;DHT22;41176;44.032;20.900;2023-02-28T05:46:10;3.40;99.90
50544;DHT22;41176;44.032;20.900;2023-02-28T05:48:37;3.40;99.90
50544;DHT22;41176;44.032;20.900;2023-02-28T05:51:04;3.40;99.90
50544;DHT22;41176;44.032;20.900;2023-02-28T05:53:30;3.40;99.90
50544;DHT22;41176;44.032;20.900;2023-02-28T05:55:56;3.30;99.90
50544;DHT22;41176;44.032;20.900;2023-02-28T05:58:22;3.40;99.90
50544;DHT22;41176;44.032;20.900;2023-02-28T06:00:48;3.40;99.90
50544;DHT22;41176;44.032;20.900;2023-02-28T06:03:14;3.40;99.90
50544;DHT22;41176;44.032;20.900;2023-02-28T06:05:40;3.30;99.90
50544;DHT22;41176;44.032;20.900;2023-02-28T06:08:06;3.30;99.90
50544;DHT22;41176;44.032;20.900;2023-02-28T06:10:33;3.30;99.90
50544;DHT22;41176;44.032;20.900;2023-02-28T06:13:00;3.40;99.90
50544;DHT22;41176;44.032;20.900;2023-02-28T06:15:28;3.40;99.90
50544;DHT22;41176;44.032;20.900;2023-02-28T06:17:54;3.50;99.90
50544;DHT22;41176;44.032;20.900;2023-02-28T06:20:23;3.40;99.90
50544;DHT22;41176;44.032;20.900;2023-02-28T06:22:49;3.40;99.90
50544;DHT22;41176;44.032;20.900;2023-02-28T06:25:16;3.40;99.90
50544;DHT22;41176;44.032;20.900;2023-02-28T06:27:42;3.50;99.90
50544;DHT22;41176;44.032;20.900;2023-02-28T06:30:09;3.40;99.90
50544;DHT22;41176;44.032;20.900;2023-02-28T06:32:35;3.50;99.90
50544;DHT22;41176;44.032;20.900;2023-02-28T06:35:01;3.60;99.90
50544;DHT22;41176;44.032;20.900;2023-02-28T06:37:27;3.70;99.90
50544;DHT22;41176;44.032;20.900;2023-02-28T06:39:54;3.60;99.90
50544;DHT22;41176;44.032;20.900;2023-02-28T06:42:22;3.60;99.90
50544;DHT22;41176;44.032;20.900;2023-02-28T06:44:50;3.60;99.90
50544;DHT22;41176;44.032;20.900;2023-02-28T06:47:16;3.60;99.90
50544;DHT22;41176;44.032;20.900;2023-02-28T06:49:42;3.60;99.90
50544;DHT22;41176;44.032;20.900;2023-02-28T06:52:08;3.60;99.90
50544;DHT22;41176;44.032;20.900;2023-02-28T06:54:36;3.60;99.90
50544;DHT22;41176;44.032;20.900;2023-02-28T06:57:02;3.70;99.90
50544;DHT22;41176;44.032;20.900;2023-02-28T06:59:27;3.70;99.90
50544;DHT22;41176;44.032;20.900;2023-02-28T07:01:53;3.70;99.90
50544;DHT22;41176;44.032;20.900;2023-02-28T07:04:20;3.70;99.90
50544;DHT22;41176;44.032;20.900;2023-02-28T07:06:46;3.70;99.90
50544;DHT22;41176;44.032;20.900;2023-02-28T07:09:12;3.70;99.90
50544;DHT22;41176;44.032;20.900;2023-02-28T07:11:39;3.80;99.90
50544;DHT22;41176;44.032;20.900;2023-02-28T07:14:06;3.80;99.90
50544;DHT22;41176;44.032;20.900;2023-02-28T07:16:32;3.80;99.90
50544;DHT22;41176;44.032;20.900;2023-02-28T07:18:58;3.80;99.90
50544;DHT22;41176;44.032;20.900;2023-02-28T07:21:24;3.90;99.90
50544;DHT22;41176;44.032;20.900;2023-02-28T07:23:50;3.80;99.90
50544;DHT22;41176;44.032;20.900;2023-02-28T07:26:18;3.80;99.90
50544;DHT22;41176;44.032;20.900;2023-02-28T07:28:46;3.80;99.90
50544;DHT22;41176;44.032;20.900;2023-02-28T07:31:12;3.80;99.90
50544;DHT22;41176;44.032;20.900;2023-02-28T07:33:41;3.90;99.90
50544;DHT22;41176;44.032;20.900;2023-02-28T07:36:12;3.80;99.90
50544;DHT22;41176;44.032;20.900;2023-02-28T07:38:41;3.80;99.90
50544;DHT22;41176;44.032;20.900;2023-02-28T07:41:08;3.70;99.90
50544;DHT22;41176;44.032;20.900;2023-02-28T07:43:34;3.80;99.90
50544;DHT22;41176;44.032;20.900;2023-02-28T07:46:12;3.80;99.90
50544;DHT22;41176;44.032;20.900;2023-02-28T07:48:40;3.80;99.90
50544;DHT22;41176;44.032;20.900;2023-02-28T07:51:07;3.80;99.90
50544;DHT22;41176;44.032;20.900;2023-02-28T07:53:32;3.80;99.90
50544;DHT22;41176;44.032;20.900;2023-02-28T07:55:59;3.80;99.90
50544;DHT22;41176;44.032;20.900;2023-02-28T07:58:26;3.80;99.90
50544;DHT22;41176;44.032;20.900;2023-02-28T08:00:53;3.70;99.90
50544;DHT22;41176;44.032;20.900;2023-02-28T08:03:20;3.60;99.90
50544;DHT22;41176;44.032;20.900;2023-02-28T08:05:47;3.50;99.90
50544;DHT22;41176;44.032;20.900;2023-02-28T08:08:13;3.50;99.90
50544;DHT22;41176;44.032;20.900;2023-02-28T08:10:39;3.60;99.90
50544;DHT22;41176;44.032;20.900;2023-02-28T08:13:05;3.60;99.90
50544;DHT22;41176;44.032;20.900;2023-02-28T08:15:31;3.70;99.90
50544;DHT22;41176;44.032;20.900;2023-02-28T08:17:56;3.70;99.90
50544;DHT22;41176;44.032;20.900;2023-02-28T08:20:23;3.70;99.90
50544;DHT22;41176;44.032;20.900;2023-02-28T08:22:49;3.70;99.90
50544;DHT22;41176;44.032;20.900;2023-02-28T08:25:15;3.70;99.90
50544;DHT22;41176;44.032;20.900;2023-02-28T08:27:41;3.80;99.90
50544;DHT22;41176;44.032;20.900;2023-02-28T08:30:09;3.90;99.90
50544;DHT22;41176;44.032;20.900;2023-02-28T08:32:35;4.00;99.90
50544;DHT22;41176;44.032;20.900;2023-02-28T08:35:01;3.90;99.90
50544;DHT22;41176;44.032;20.900;2023-02-28T08:37:28;3.90;99.90
50544;DHT22;41176;44.032;20.900;2023-02-28T08:39:54;3.90;99.90
50544;DHT22;41176;44.032;20.900;2023-02-28T08:42:19;3.90;99.90
50544;DHT22;41176;44.032;20.900;2023-02-28T08:48:33;4.00;99.90
50544;DHT22;41176;44.032;20.900;2023-02-28T08:51:14;4.10;99.90
50544;DHT22;41176;44.032;20.900;2023-02-28T08:53:46;4.10;99.90
50544;DHT22;41176;44.032;20.900;2023-02-28T08:56:17;4.10;99.90
50544;DHT22;41176;44.032;20.900;2023-02-28T09:29:25;4.40;99.90
50544;DHT22;41176;44.032;20.900;2023-02-28T10:26:22;4.60;99.90
50544;DHT22;41176;44.032;20.900;2023-02-28T10:29:22;4.60;99.90
50544;DHT22;41176;44.032;20.900;2023-02-28T10:31:50;4.60;99.90
50544;DHT22;41176;44.032;20.900;2023-02-28T10:34:43;4.60;99.90
50544;DHT22;41176;44.032;20.900;2023-02-28T11:28:49;4.70;99.90
50544;DHT22;41176;44.032;20.900;2023-02-28T11:34:40;4.60;99.90
50544;DHT22;41176;44.032;20.900;2023-02-28T11:37:12;4.70;99.90
50544;DHT22;41176;44.032;20.900;2023-02-28T11:39:38;4.70;99.90
50544;DHT22;41176;44.032;20.900;2023-02-28T11:45:12;4.80;99.90
50544;DHT22;41176;44.032;20.900;2023-02-28T11:48:04;4.80;99.90
50544;DHT22;41176;44.032;20.900;2023-02-28T11:50:59;4.80;99.90
50544;DHT22;41176;44.032;20.900;2023-02-28T11:56:44;4.90;99.90
50544;DHT22;41176;44.032;20.900;2023-02-28T11:59:29;4.80;99.90
50544;DHT22;41176;44.032;20.900;2023-02-28T12:02:23;4.90;99.90
50544;DHT22;41176;44.032;20.900;2023-02-28T12:10:55;4.80;99.90
50544;DHT22;41176;44.032;20.900;2023-02-28T12:13:46;4.70;99.90
50544;DHT22;41176;44.032;20.900;2023-02-28T12:19:32;4.80;99.90
50544;DHT22;41176;44.032;20.900;2023-02-28T12:22:17;4.80;99.90
50544;DHT22;41176;44.032;20.900;2023-02-28T12:27:40;4.90;99.90
50544;DHT22;41176;44.032;20.900;2023-02-28T12:30:53;5.00;99.90
50544;DHT22;41176;44.032;20.900;2023-02-28T12:33:22;4.90;99.90
50544;DHT22;41176;44.032;20.900;2023-02-28T12:35:54;4.90;99.90
50544;DHT22;41176;44.032;20.900;2023-02-28T12:38:36;5.00;99.90
50544;DHT22;41176;44.032;20.900;2023-02-28T12:44:00;4.90;99.90
50544;DHT22;41176;44.032;20.900;2023-02-28T12:46:33;4.90;99.90
50544;DHT22;41176;44.032;20.900;2023-02-28T12:49:06;4.90;99.90
50544;DHT22;41176;44.032;20.900;2023-02-28T12:51:34;4.90;99.90
50544;DHT22;41176;44.032;20.900;2023-02-28T12:54:10;4.90;99.90
50544;DHT22;41176;44.032;20.900;2023-02-28T12:56:54;4.90;99.90
50544;DHT22;41176;44.032;20.900;2023-02-28T12:59:45;4.90;99.90
50544;DHT22;41176;44.032;20.900;2023-02-28T13:09:19;4.90;99.90
50544;DHT22;41176;44.032;20.900;2023-02-28T13:11:47;4.90;99.90
50544;DHT22;41176;44.032;20.900;2023-02-28T13:19:30;5.00;99.90
50544;DHT22;41176;44.032;20.900;2023-02-28T13:21:57;5.00;99.90
50544;DHT22;41176;44.032;20.900;2023-02-28T13:29:36;4.90;99.90
50544;DHT22;41176;44.032;20.900;2023-02-28T13:34:37;5.00;99.90
50544;DHT22;41176;44.032;20.900;2023-02-28T13:39:59;4.90;99.90
50544;DHT22;41176;44.032;20.900;2023-02-28T13:42:34;4.90;99.90
50544;DHT22;41176;44.032;20.900;2023-02-28T13:47:45;4.90;99.90
50544;DHT22;41176;44.032;20.900;2023-02-28T13:56:10;4.90;99.90
50544;DHT22;41176;44.032;20.900;2023-02-28T13:59:15;4.80;99.90
50544;DHT22;41176;44.032;20.900;2023-02-28T14:02:01;4.80;99.90
50544;DHT22;41176;44.032;20.900;2023-02-28T14:07:23;4.80;99.90
50544;DHT22;41176;44.032;20.900;2023-02-28T14:10:04;4.90;99.90
50544;DHT22;41176;44.032;20.900;2023-02-28T14:18:33;4.90;99.90
50544;DHT22;41176;44.032;20.900;2023-02-28T14:21:19;4.90;99.90
50544;DHT22;41176;44.032;20.900;2023-02-28T14:24:08;4.80;99.90
50544;DHT22;41176;44.032;20.900;2023-02-28T14:37:38;4.80;99.90
50544;DHT22;41176;44.032;20.900;2023-02-28T14:40:16;4.80;99.90
50544;DHT22;41176;44.032;20.900;2023-02-28T14:42:49;4.80;99.90
50544;DHT22;41176;44.032;20.900;2023-02-28T14:45:21;4.80;99.90
50544;DHT22;41176;44.032;20.900;2023-02-28T14:47:49;4.80;99.90
50544;DHT22;41176;44.032;20.900;2023-02-28T14:50:20;4.80;99.90
50544;DHT22;41176;44.032;20.900;2023-02-28T14:52:46;4.70;99.90
50544;DHT22;41176;44.032;20.900;2023-02-28T14:55:17;4.70;99.90
50544;DHT22;41176;44.032;20.900;2023-02-28T14:57:55;4.80;99.90
50544;DHT22;41176;44.032;20.900;2023-02-28T15:00:28;4.80;99.90
50544;DHT22;41176;44.032;20.900;2023-02-28T15:02:55;4.80;99.90
50544;DHT22;41176;44.032;20.900;2023-02-28T15:05:28;4.80;99.90
50544;DHT22;41176;44.032;20.900;2023-02-28T15:10:31;4.80;99.90
50544;DHT22;41176;44.032;20.900;2023-02-28T15:13:07;4.80;99.90
50544;DHT22;41176;44.032;20.900;2023-02-28T15:20:49;4.70;99.90
50544;DHT22;41176;44.032;20.900;2023-02-28T15:23:16;4.70;99.90
50544;DHT22;41176;44.032;20.900;2023-02-28T15:25:42;4.60;99.90
50544;DHT22;41176;44.032;20.900;2023-02-28T15:28:17;4.70;99.90
50544;DHT22;41176;44.032;20.900;2023-02-28T15:31:02;4.70;99.90
50544;DHT22;41176;44.032;20.900;2023-02-28T15:33:33;4.70;99.90
50544;DHT22;41176;44.032;20.900;2023-02-28T15:36:18;4.70;99.90
50544;DHT22;41176;44.032;20.900;2023-02-28T15:38:50;4.60;99.90
50544;DHT22;41176;44.032;20.900;2023-02-28T15:41:30;4.70;99.90
50544;DHT22;41176;44.032;20.900;2023-02-28T15:46:57;4.70;99.90
50544;DHT22;41176;44.032;20.900;2023-02-28T15:49:24;4.70;99.90
50544;DHT22;41176;44.032;20.900;2023-02-28T15:51:52;4.70;99.90
50544;DHT22;41176;44.032;20.900;2023-02-28T15:54:31;4.70;99.90
50544;DHT22;41176;44.032;20.900;2023-02-28T15:57:03;4.70;99.90
50544;DHT22;41176;44.032;20.900;2023-02-28T15:59:31;4.60;99.90
50544;DHT22;41176;44.032;20.900;2023-02-28T16:02:19;4.50;99.90
50544;DHT22;41176;44.032;20.900;2023-02-28T16:07:34;4.50;99.90
50544;DHT22;41176;44.032;20.900;2023-02-28T16:10:00;4.50;99.90
50544;DHT22;41176;44.032;20.900;2023-02-28T16:12:29;4.50;99.90
50544;DHT22;41176;44.032;20.900;2023-02-28T16:14:57;4.50;99.90
50544;DHT22;41176;44.032;20.900;2023-02-28T16:17:29;4.60;99.90
50544;DHT22;41176;44.032;20.900;2023-02-28T16:19:56;4.60;99.90
50544;DHT22;41176;44.032;20.900;2023-02-28T16:22:23;4.50;99.90
50544;DHT22;41176;44.032;20.900;2023-02-28T16:24:49;4.50;99.90
50544;DHT22;41176;44.032;20.900;2023-02-28T16:27:23;4.50;99.90
50544;DHT22;41176;44.032;20.900;2023-02-28T16:29:50;4.50;99.90
50544;DHT22;41176;44.032;20.900;2023-02-28T16:32:16;4.60;99.90
50544;DHT22;41176;44.032;20.900;2023-02-28T16:34:45;4.50;99.90
50544;DHT22;41176;44.032;20.900;2023-02-28T16:37:16;4.40;99.90
50544;DHT22;41176;44.032;20.900;2023-02-28T16:39:43;4.40;99.90
50544;DHT22;41176;44.032;20.900;2023-02-28T16:42:23;4.40;99.90
50544;DHT22;41176;44.032;20.900;2023-02-28T16:44:50;4.50;99.90
50544;DHT22;41176;44.032;20.900;2023-02-28T16:47:17;4.40;99.90
50544;DHT22;41176;44.032;20.900;2023-02-28T16:49:43;4.40;99.90
50544;DHT22;41176;44.032;20.900;2023-02-28T16:52:10;4.40;99.90
50544;DHT22;41176;44.032;20.900;2023-02-28T16:54:37;4.40;99.90
50544;DHT22;41176;44.032;20.900;2023-02-28T16:57:08;4.40;99.90
50544;DHT22;41176;44.032;20.900;2023-02-28T16:59:38;4.50;99.90
50544;DHT22;41176;44.032;20.900;2023-02-28T17:02:11;4.50;99.90
50544;DHT22;41176;44.032;20.900;2023-02-28T17:04:37;4.40;99.90
50544;DHT22;41176;44.032;20.900;2023-02-28T17:07:03;4.30;99.90
50544;DHT22;41176;44.032;20.900;2023-02-28T17:09:28;4.30;99.90
50544;DHT22;41176;44.032;20.900;2023-02-28T17:11:54;4.30;99.90
50544;DHT22;41176;44.032;20.900;2023-02-28T17:14:21;4.30;99.90
50544;DHT22;41176;44.032;20.900;2023-02-28T17:16:49;4.40;99.90
50544;DHT22;41176;44.032;20.900;2023-02-28T17:19:16;4.40;99.90
50544;DHT22;41176;44.032;20.900;2023-02-28T17:21:42;4.30;99.90
50544;DHT22;41176;44.032;20.900;2023-02-28T17:24:09;4.40;99.90
50544;DHT22;41176;44.032;20.900;2023-02-28T17:26:39;4.40;99.90
50544;DHT22;41176;44.032;20.900;2023-02-28T17:29:19;4.30;99.90
50544;DHT22;41176;44.032;20.900;2023-02-28T17:31:45;4.30;99.90
50544;DHT22;41176;44.032;20.900;2023-02-28T17:34:12;4.20;99.90
50544;DHT22;41176;44.032;20.900;2023-02-28T17:36:44;4.10;99.90
50544;DHT22;41176;44.032;20.900;2023-02-28T17:39:12;4.20;99.90
50544;DHT22;41176;44.032;20.900;2023-02-28T17:41:41;4.20;99.90
50544;DHT22;41176;44.032;20.900;2023-02-28T17:44:07;4.20;99.90
50544;DHT22;41176;44.032;20.900;2023-02-28T17:46:33;4.20;99.90
50544;DHT22;41176;44.032;20.900;2023-02-28T17:48:59;4.20;99.90
50544;DHT22;41176;44.032;20.900;2023-02-28T17:51:25;4.20;99.90
50544;DHT22;41176;44.032;20.900;2023-02-28T17:53:52;4.20;99.90
50544;DHT22;41176;44.032;20.900;2023-02-28T17:56:23;4.20;99.90
50544;DHT22;41176;44.032;20.900;2023-02-28T17:58:50;4.20;99.90
50544;DHT22;41176;44.032;20.900;2023-02-28T18:01:16;4.20;99.90
50544;DHT22;41176;44.032;20.900;2023-02-28T18:03:42;4.10;99.90
50544;DHT22;41176;44.032;20.900;2023-02-28T18:06:22;4.20;99.90
50544;DHT22;41176;44.032;20.900;2023-02-28T18:08:49;4.20;99.90
50544;DHT22;41176;44.032;20.900;2023-02-28T18:11:17;4.20;99.90
50544;DHT22;41176;44.032;20.900;2023-02-28T18:13:50;4.20;99.90
50544;DHT22;41176;44.032;20.900;2023-02-28T18:16:17;4.20;99.90
50544;DHT22;41176;44.032;20.900;2023-02-28T18:19:00;4.20;99.90
50544;DHT22;41176;44.032;20.900;2023-02-28T18:21:29;4.20;99.90
50544;DHT22;41176;44.032;20.900;2023-02-28T18:23:55;4.10;99.90
50544;DHT22;41176;44.032;20.900;2023-02-28T18:26:31;4.10;99.90
50544;DHT22;41176;44.032;20.900;2023-02-28T18:28:58;4.20;99.90
50544;DHT22;41176;44.032;20.900;2023-02-28T18:31:24;4.10;99.90
50544;DHT22;41176;44.032;20.900;2023-02-28T18:33:51;4.10;99.90
50544;DHT22;41176;44.032;20.900;2023-02-28T18:36:18;4.00;99.90
50544;DHT22;41176;44.032;20.900;2023-02-28T18:38:49;4.10;99.90
50544;DHT22;41176;44.032;20.900;2023-02-28T18:41:19;4.00;99.90
50544;DHT22;41176;44.032;20.900;2023-02-28T18:43:48;4.00;99.90
50544;DHT22;41176;44.032;20.900;2023-02-28T18:46:17;4.10;99.90
50544;DHT22;41176;44.032;20.900;2023-02-28T18:48:43;4.10;99.90
50544;DHT22;41176;44.032;20.900;2023-02-28T18:51:11;4.10;99.90
50544;DHT22;41176;44.032;20.900;2023-02-28T18:53:38;4.10;99.90
50544;DHT22;41176;44.032;20.900;2023-02-28T18:56:05;4.00;99.90
50544;DHT22;41176;44.032;20.900;2023-02-28T18:58:32;4.00;99.90
50544;DHT22;41176;44.032;20.900;2023-02-28T19:01:02;4.10;99.90
50544;DHT22;41176;44.032;20.900;2023-02-28T19:03:28;4.10;99.90
50544;DHT22;41176;44.032;20.900;2023-02-28T19:05:55;4.10;99.90
50544;DHT22;41176;44.032;20.900;2023-02-28T19:08:21;4.10;99.90
50544;DHT22;41176;44.032;20.900;2023-02-28T19:11:10;4.20;99.90
50544;DHT22;41176;44.032;20.900;2023-02-28T19:13:39;4.20;99.90
50544;DHT22;41176;44.032;20.900;2023-02-28T19:16:06;4.10;99.90
50544;DHT22;41176;44.032;20.900;2023-02-28T19:18:32;4.20;99.90
50544;DHT22;41176;44.032;20.900;2023-02-28T19:21:01;4.10;99.90
50544;DHT22;41176;44.032;20.900;2023-02-28T19:23:27;4.10;99.90
50544;DHT22;41176;44.032;20.900;2023-02-28T19:25:55;4.10;99.90
50544;DHT22;41176;44.032;20.900;2023-02-28T19:28:21;4.10;99.90
50544;DHT22;41176;44.032;20.900;2023-02-28T19:30:51;4.00;99.90
50544;DHT22;41176;44.032;20.900;2023-02-28T19:33:18;4.10;99.90
50544;DHT22;41176;44.032;20.900;2023-02-28T19:35:45;4.20;99.90
50544;DHT22;41176;44.032;20.900;2023-02-28T19:38:10;4.20;99.90
50544;DHT22;41176;44.032;20.900;2023-02-28T19:40:36;4.20;99.90
50544;DHT22;41176;44.032;20.900;2023-02-28T19:43:02;4.30;99.90
50544;DHT22;41176;44.032;20.900;2023-02-28T19:45:28;4.30;99.90
50544;DHT22;41176;44.032;20.900;2023-02-28T19:47:58;4.30;99.90
50544;DHT22;41176;44.032;20.900;2023-02-28T19:50:24;4.20;99.90
50544;DHT22;41176;44.032;20.900;2023-02-28T19:52:53;4.30;99.90
50544;DHT22;41176;44.032;20.900;2023-02-28T19:55:19;4.30;99.90
50544;DHT22;41176;44.032;20.900;2023-02-28T19:57:46;4.30;99.90
50544;DHT22;41176;44.032;20.900;2023-02-28T20:00:13;4.20;99.90
50544;DHT22;41176;44.032;20.900;2023-02-28T20:02:40;4.10;99.90
50544;DHT22;41176;44.032;20.900;2023-02-28T20:05:07;3.90;99.90
50544;DHT22;41176;44.032;20.900;2023-02-28T20:07:33;4.00;99.90
50544;DHT22;41176;44.032;20.900;2023-02-28T20:09:58;4.10;99.90
50544;DHT22;41176;44.032;20.900;2023-02-28T20:12:24;4.20;99.90
50544;DHT22;41176;44.032;20.900;2023-02-28T20:14:51;4.20;99.90
50544;DHT22;41176;44.032;20.900;2023-02-28T20:17:17;4.20;99.90
50544;DHT22;41176;44.032;20.900;2023-02-28T20:19:43;4.30;99.90
50544;DHT22;41176;44.032;20.900;2023-02-28T20:22:09;4.30;99.90